New Perlican, Canada
Current Conditions -  °F | °C
As of 11:00 AM on Thursday 30 Oct 2014 (Local Time) from CYYT Reporting Station
Drizzle Drizzle  
Wind Chill: 59°   Ceiling: 700
Heat Index: 59°   Visibility: 10mi
Dew Point: 57°   Wind: 16mph
Humidity: 94%   Direction: 220°SW
Pressure: 29.79"   Gusts: 29mph
Location:  47.92°N, 53.37°W
Report Text: CYYT 301300Z 22014G25KT 10SM -DZ OVC007 15/14 A2979 RMK SF8 SLP092 DENSITY ALT 600FT
Loading
Personal Weather Stations






























Interactive Weather Map
Tropical Storm Tracking
New forecast layout! Learn more

10-Day Weather Forecast

Advertisements
Track Severe Weather on mobile